sensor_id;sensor_type;location;lat;lon;timestamp;P1;durP1;ratioP1;P2;durP2;ratioP2
71969;SDS011;59838;52.152;5.436;2023-04-25T00:01:49;12.90;;;1.00;;
71969;SDS011;59838;52.152;5.436;2023-04-25T00:04:17;8.40;;;1.05;;
71969;SDS011;59838;52.152;5.436;2023-04-25T00:06:44;4.60;;;1.38;;
71969;SDS011;59838;52.152;5.436;2023-04-25T00:09:10;8.43;;;1.30;;
71969;SDS011;59838;52.152;5.436;2023-04-25T00:11:37;10.02;;;0.82;;
71969;SDS011;59838;52.152;5.436;2023-04-25T00:14:04;8.85;;;1.90;;
71969;SDS011;59838;52.152;5.436;2023-04-25T00:16:30;10.52;;;1.17;;
71969;SDS011;59838;52.152;5.436;2023-04-25T00:19:00;9.35;;;1.27;;
71969;SDS011;59838;52.152;5.436;2023-04-25T00:21:28;10.17;;;1.50;;
71969;SDS011;59838;52.152;5.436;2023-04-25T00:23:55;9.68;;;1.70;;
71969;SDS011;59838;52.152;5.436;2023-04-25T00:26:22;7.20;;;1.20;;
71969;SDS011;59838;52.152;5.436;2023-04-25T00:28:48;14.40;;;1.48;;
71969;SDS011;59838;52.152;5.436;2023-04-25T00:31:15;8.25;;;1.70;;
71969;SDS011;59838;52.152;5.436;2023-04-25T00:33:42;12.90;;;1.63;;
71969;SDS011;59838;52.152;5.436;2023-04-25T00:36:09;9.02;;;1.58;;
71969;SDS011;59838;52.152;5.436;2023-04-25T00:38:35;11.27;;;1.45;;
71969;SDS011;59838;52.152;5.436;2023-04-25T00:41:02;13.75;;;1.55;;
71969;SDS011;59838;52.152;5.436;2023-04-25T00:43:28;12.23;;;1.20;;
71969;SDS011;59838;52.152;5.436;2023-04-25T00:45:57;8.03;;;1.10;;
71969;SDS011;59838;52.152;5.436;2023-04-25T00:48:26;11.10;;;1.52;;
71969;SDS011;59838;52.152;5.436;2023-04-25T00:50:53;12.43;;;1.73;;
71969;SDS011;59838;52.152;5.436;2023-04-25T00:53:22;6.93;;;2.10;;
71969;SDS011;59838;52.152;5.436;2023-04-25T00:55:50;8.73;;;1.25;;
71969;SDS011;59838;52.152;5.436;2023-04-25T00:58:17;12.63;;;1.00;;
71969;SDS011;59838;52.152;5.436;2023-04-25T01:00:45;6.88;;;1.40;;
71969;SDS011;59838;52.152;5.436;2023-04-25T01:03:16;12.32;;;1.65;;
71969;SDS011;59838;52.152;5.436;2023-04-25T01:05:46;8.88;;;1.13;;
71969;SDS011;59838;52.152;5.436;2023-04-25T01:08:13;8.20;;;1.00;;
71969;SDS011;59838;52.152;5.436;2023-04-25T01:10:40;7.87;;;1.37;;
71969;SDS011;59838;52.152;5.436;2023-04-25T01:13:07;15.60;;;1.48;;
71969;SDS011;59838;52.152;5.436;2023-04-25T01:15:34;8.02;;;1.27;;
71969;SDS011;59838;52.152;5.436;2023-04-25T01:18:02;3.85;;;0.70;;
71969;SDS011;59838;52.152;5.436;2023-04-25T01:20:30;8.93;;;0.88;;
71969;SDS011;59838;52.152;5.436;2023-04-25T01:22:58;6.87;;;1.10;;
71969;SDS011;59838;52.152;5.436;2023-04-25T01:25:26;10.30;;;1.58;;
71969;SDS011;59838;52.152;5.436;2023-04-25T01:27:53;7.05;;;1.30;;
71969;SDS011;59838;52.152;5.436;2023-04-25T01:30:19;4.28;;;1.02;;
71969;SDS011;59838;52.152;5.436;2023-04-25T01:32:46;9.70;;;1.42;;
71969;SDS011;59838;52.152;5.436;2023-04-25T01:35:14;8.77;;;1.40;;
71969;SDS011;59838;52.152;5.436;2023-04-25T01:37:41;9.57;;;1.65;;
71969;SDS011;59838;52.152;5.436;2023-04-25T01:40:09;5.60;;;1.20;;
71969;SDS011;59838;52.152;5.436;2023-04-25T01:42:37;5.70;;;1.20;;
71969;SDS011;59838;52.152;5.436;2023-04-25T01:45:05;8.23;;;1.17;;
71969;SDS011;59838;52.152;5.436;2023-04-25T01:47:33;7.10;;;1.10;;
71969;SDS011;59838;52.152;5.436;2023-04-25T01:50:02;3.83;;;0.52;;
71969;SDS011;59838;52.152;5.436;2023-04-25T01:52:29;10.35;;;1.65;;
71969;SDS011;59838;52.152;5.436;2023-04-25T01:54:57;6.75;;;1.00;;
71969;SDS011;59838;52.152;5.436;2023-04-25T01:57:23;17.67;;;2.38;;
71969;SDS011;59838;52.152;5.436;2023-04-25T01:59:50;4.37;;;0.83;;
71969;SDS011;59838;52.152;5.436;2023-04-25T02:02:17;12.57;;;1.45;;
71969;SDS011;59838;52.152;5.436;2023-04-25T02:04:43;5.57;;;0.95;;
71969;SDS011;59838;52.152;5.436;2023-04-25T02:07:10;11.02;;;1.73;;
71969;SDS011;59838;52.152;5.436;2023-04-25T02:09:36;9.23;;;1.05;;
71969;SDS011;59838;52.152;5.436;2023-04-25T02:12:03;8.93;;;1.13;;
71969;SDS011;59838;52.152;5.436;2023-04-25T02:14:30;4.50;;;1.00;;
71969;SDS011;59838;52.152;5.436;2023-04-25T02:16:56;5.10;;;0.70;;
71969;SDS011;59838;52.152;5.436;2023-04-25T02:19:23;4.28;;;1.08;;
71969;SDS011;59838;52.152;5.436;2023-04-25T02:21:49;7.63;;;1.30;;
71969;SDS011;59838;52.152;5.436;2023-04-25T02:24:16;6.23;;;1.07;;
71969;SDS011;59838;52.152;5.436;2023-04-25T02:26:42;3.55;;;1.08;;
71969;SDS011;59838;52.152;5.436;2023-04-25T02:29:10;5.57;;;1.00;;
71969;SDS011;59838;52.152;5.436;2023-04-25T02:31:36;5.32;;;0.90;;
71969;SDS011;59838;52.152;5.436;2023-04-25T02:34:03;4.75;;;1.00;;
71969;SDS011;59838;52.152;5.436;2023-04-25T02:36:29;2.87;;;1.00;;
71969;SDS011;59838;52.152;5.436;2023-04-25T02:38:58;4.50;;;0.70;;
71969;SDS011;59838;52.152;5.436;2023-04-25T02:41:24;4.93;;;0.77;;
71969;SDS011;59838;52.152;5.436;2023-04-25T02:43:51;5.80;;;0.57;;
71969;SDS011;59838;52.152;5.436;2023-04-25T02:46:18;4.22;;;0.75;;
71969;SDS011;59838;52.152;5.436;2023-04-25T02:49:03;6.70;;;1.17;;
71969;SDS011;59838;52.152;5.436;2023-04-25T02:51:29;10.60;;;1.73;;
71969;SDS011;59838;52.152;5.436;2023-04-25T02:53:56;9.52;;;1.27;;
71969;SDS011;59838;52.152;5.436;2023-04-25T02:56:22;2.33;;;0.60;;
71969;SDS011;59838;52.152;5.436;2023-04-25T02:58:49;6.93;;;1.20;;
71969;SDS011;59838;52.152;5.436;2023-04-25T03:01:15;4.63;;;1.30;;
71969;SDS011;59838;52.152;5.436;2023-04-25T03:03:42;6.20;;;0.63;;
71969;SDS011;59838;52.152;5.436;2023-04-25T03:06:09;5.85;;;0.57;;
71969;SDS011;59838;52.152;5.436;2023-04-25T03:08:35;4.57;;;0.75;;
71969;SDS011;59838;52.152;5.436;2023-04-25T03:11:02;5.40;;;1.25;;
71969;SDS011;59838;52.152;5.436;2023-04-25T03:13:28;6.20;;;0.73;;
71969;SDS011;59838;52.152;5.436;2023-04-25T03:15:56;9.52;;;0.70;;
71969;SDS011;59838;52.152;5.436;2023-04-25T03:18:22;5.95;;;1.10;;
71969;SDS011;59838;52.152;5.436;2023-04-25T03:20:48;5.18;;;1.00;;
71969;SDS011;59838;52.152;5.436;2023-04-25T03:23:15;9.18;;;1.40;;
71969;SDS011;59838;52.152;5.436;2023-04-25T03:25:41;3.53;;;1.30;;
71969;SDS011;59838;52.152;5.436;2023-04-25T03:28:08;7.35;;;1.10;;
71969;SDS011;59838;52.152;5.436;2023-04-25T03:30:34;13.68;;;2.17;;
71969;SDS011;59838;52.152;5.436;2023-04-25T03:33:01;7.70;;;1.25;;
71969;SDS011;59838;52.152;5.436;2023-04-25T03:35:27;9.93;;;1.38;;
71969;SDS011;59838;52.152;5.436;2023-04-25T03:37:54;8.70;;;1.57;;
71969;SDS011;59838;52.152;5.436;2023-04-25T03:40:21;4.10;;;1.50;;
71969;SDS011;59838;52.152;5.436;2023-04-25T03:42:47;7.70;;;1.35;;
71969;SDS011;59838;52.152;5.436;2023-04-25T03:45:14;7.35;;;1.45;;
71969;SDS011;59838;52.152;5.436;2023-04-25T03:47:40;14.85;;;1.63;;
71969;SDS011;59838;52.152;5.436;2023-04-25T03:50:07;17.60;;;1.53;;
71969;SDS011;59838;52.152;5.436;2023-04-25T03:52:33;4.93;;;0.95;;
71969;SDS011;59838;52.152;5.436;2023-04-25T03:55:00;6.22;;;0.70;;
71969;SDS011;59838;52.152;5.436;2023-04-25T03:57:27;9.07;;;1.13;;
71969;SDS011;59838;52.152;5.436;2023-04-25T03:59:53;9.90;;;1.17;;
71969;SDS011;59838;52.152;5.436;2023-04-25T04:02:20;12.07;;;1.20;;
71969;SDS011;59838;52.152;5.436;2023-04-25T04:04:46;9.50;;;1.55;;
71969;SDS011;59838;52.152;5.436;2023-04-25T04:07:13;7.78;;;0.90;;
71969;SDS011;59838;52.152;5.436;2023-04-25T04:09:40;11.77;;;1.20;;
71969;SDS011;59838;52.152;5.436;2023-04-25T04:12:07;5.72;;;0.88;;
71969;SDS011;59838;52.152;5.436;2023-04-25T04:14:33;5.03;;;0.80;;
71969;SDS011;59838;52.152;5.436;2023-04-25T04:16:59;5.53;;;1.20;;
71969;SDS011;59838;52.152;5.436;2023-04-25T04:19:26;3.38;;;0.80;;
71969;SDS011;59838;52.152;5.436;2023-04-25T04:21:52;2.13;;;1.10;;
71969;SDS011;59838;52.152;5.436;2023-04-25T04:24:19;3.28;;;0.85;;
71969;SDS011;59838;52.152;5.436;2023-04-25T04:26:45;6.47;;;1.00;;
71969;SDS011;59838;52.152;5.436;2023-04-25T04:29:12;6.28;;;0.77;;
71969;SDS011;59838;52.152;5.436;2023-04-25T04:31:47;10.98;;;0.88;;
71969;SDS011;59838;52.152;5.436;2023-04-25T04:34:16;5.20;;;0.68;;
71969;SDS011;59838;52.152;5.436;2023-04-25T04:36:44;8.25;;;0.60;;
71969;SDS011;59838;52.152;5.436;2023-04-25T04:39:13;4.87;;;0.47;;
71969;SDS011;59838;52.152;5.436;2023-04-25T04:41:40;5.32;;;0.68;;
71969;SDS011;59838;52.152;5.436;2023-04-25T04:44:06;4.63;;;0.55;;
71969;SDS011;59838;52.152;5.436;2023-04-25T04:46:35;4.22;;;0.40;;
71969;SDS011;59838;52.152;5.436;2023-04-25T04:49:04;5.47;;;0.40;;
71969;SDS011;59838;52.152;5.436;2023-04-25T04:51:31;4.90;;;0.60;;
71969;SDS011;59838;52.152;5.436;2023-04-25T04:53:58;4.35;;;0.45;;
71969;SDS011;59838;52.152;5.436;2023-04-25T04:56:31;4.80;;;0.40;;
71969;SDS011;59838;52.152;5.436;2023-04-25T04:58:58;5.50;;;0.70;;
71969;SDS011;59838;52.152;5.436;2023-04-25T05:01:25;3.67;;;0.40;;
71969;SDS011;59838;52.152;5.436;2023-04-25T05:03:52;5.07;;;0.60;;
71969;SDS011;59838;52.152;5.436;2023-04-25T05:06:20;5.30;;;0.43;;
71969;SDS011;59838;52.152;5.436;2023-04-25T05:08:46;3.35;;;0.60;;
71969;SDS011;59838;52.152;5.436;2023-04-25T05:11:13;5.63;;;0.60;;
71969;SDS011;59838;52.152;5.436;2023-04-25T05:13:39;6.63;;;0.60;;
71969;SDS011;59838;52.152;5.436;2023-04-25T05:16:06;4.50;;;0.30;;
71969;SDS011;59838;52.152;5.436;2023-04-25T05:18:32;4.80;;;0.30;;
71969;SDS011;59838;52.152;5.436;2023-04-25T05:20:58;4.75;;;0.40;;
71969;SDS011;59838;52.152;5.436;2023-04-25T05:23:25;4.30;;;0.40;;
71969;SDS011;59838;52.152;5.436;2023-04-25T05:25:53;6.22;;;0.50;;
71969;SDS011;59838;52.152;5.436;2023-04-25T05:28:20;4.13;;;0.50;;
71969;SDS011;59838;52.152;5.436;2023-04-25T05:30:47;5.57;;;0.43;;
71969;SDS011;59838;52.152;5.436;2023-04-25T05:33:14;7.18;;;0.60;;
71969;SDS011;59838;52.152;5.436;2023-04-25T05:35:41;3.80;;;0.52;;
71969;SDS011;59838;52.152;5.436;2023-04-25T05:38:08;8.27;;;0.60;;
71969;SDS011;59838;52.152;5.436;2023-04-25T05:40:34;3.67;;;0.50;;
71969;SDS011;59838;52.152;5.436;2023-04-25T05:43:01;4.05;;;0.28;;
71969;SDS011;59838;52.152;5.436;2023-04-25T05:45:27;5.00;;;0.90;;
71969;SDS011;59838;52.152;5.436;2023-04-25T05:47:54;3.92;;;0.40;;
71969;SDS011;59838;52.152;5.436;2023-04-25T05:50:20;7.88;;;0.60;;
71969;SDS011;59838;52.152;5.436;2023-04-25T05:52:47;9.37;;;0.50;;
71969;SDS011;59838;52.152;5.436;2023-04-25T05:55:14;4.20;;;0.50;;
71969;SDS011;59838;52.152;5.436;2023-04-25T05:57:41;9.38;;;0.60;;
71969;SDS011;59838;52.152;5.436;2023-04-25T06:00:08;2.83;;;0.60;;
71969;SDS011;59838;52.152;5.436;2023-04-25T06:02:35;5.47;;;0.65;;
71969;SDS011;59838;52.152;5.436;2023-04-25T06:05:02;3.87;;;0.40;;
71969;SDS011;59838;52.152;5.436;2023-04-25T06:07:29;9.48;;;0.60;;
71969;SDS011;59838;52.152;5.436;2023-04-25T06:09:57;4.93;;;0.60;;
71969;SDS011;59838;52.152;5.436;2023-04-25T06:12:23;7.60;;;1.27;;
71969;SDS011;59838;52.152;5.436;2023-04-25T06:14:50;2.50;;;0.75;;
71969;SDS011;59838;52.152;5.436;2023-04-25T06:17:16;6.87;;;0.33;;
71969;SDS011;59838;52.152;5.436;2023-04-25T06:19:43;7.78;;;0.60;;
71969;SDS011;59838;52.152;5.436;2023-04-25T06:22:09;5.75;;;0.30;;
71969;SDS011;59838;52.152;5.436;2023-04-25T06:24:37;5.35;;;0.32;;
71969;SDS011;59838;52.152;5.436;2023-04-25T06:27:03;3.67;;;0.80;;
71969;SDS011;59838;52.152;5.436;2023-04-25T06:29:30;3.90;;;0.63;;
71969;SDS011;59838;52.152;5.436;2023-04-25T06:31:56;5.95;;;0.82;;
71969;SDS011;59838;52.152;5.436;2023-04-25T06:34:23;4.57;;;0.82;;
71969;SDS011;59838;52.152;5.436;2023-04-25T06:36:50;5.03;;;0.60;;
71969;SDS011;59838;52.152;5.436;2023-04-25T06:39:16;4.45;;;0.50;;
71969;SDS011;59838;52.152;5.436;2023-04-25T06:41:43;4.97;;;0.87;;
71969;SDS011;59838;52.152;5.436;2023-04-25T06:44:09;4.05;;;0.63;;
71969;SDS011;59838;52.152;5.436;2023-04-25T06:46:35;3.25;;;0.38;;
71969;SDS011;59838;52.152;5.436;2023-04-25T06:49:03;4.63;;;0.50;;
71969;SDS011;59838;52.152;5.436;2023-04-25T06:51:30;7.38;;;0.77;;
71969;SDS011;59838;52.152;5.436;2023-04-25T06:53:57;3.77;;;0.40;;
71969;SDS011;59838;52.152;5.436;2023-04-25T06:56:23;4.85;;;1.10;;
71969;SDS011;59838;52.152;5.436;2023-04-25T06:58:50;6.88;;;0.85;;
71969;SDS011;59838;52.152;5.436;2023-04-25T07:01:16;4.18;;;0.40;;
71969;SDS011;59838;52.152;5.436;2023-04-25T07:03:43;7.05;;;0.50;;
71969;SDS011;59838;52.152;5.436;2023-04-25T07:06:10;5.00;;;0.20;;
71969;SDS011;59838;52.152;5.436;2023-04-25T07:08:36;7.40;;;0.52;;
71969;SDS011;59838;52.152;5.436;2023-04-25T07:11:03;5.40;;;0.60;;
71969;SDS011;59838;52.152;5.436;2023-04-25T07:13:29;4.95;;;0.45;;
71969;SDS011;59838;52.152;5.436;2023-04-25T07:15:56;6.07;;;0.55;;
71969;SDS011;59838;52.152;5.436;2023-04-25T07:18:23;3.17;;;0.37;;
71969;SDS011;59838;52.152;5.436;2023-04-25T07:20:49;2.83;;;0.30;;
71969;SDS011;59838;52.152;5.436;2023-04-25T07:23:16;2.55;;;0.30;;
71969;SDS011;59838;52.152;5.436;2023-04-25T07:25:42;7.63;;;0.65;;
71969;SDS011;59838;52.152;5.436;2023-04-25T07:28:09;2.97;;;0.35;;
71969;SDS011;59838;52.152;5.436;2023-04-25T07:30:35;3.73;;;0.50;;
71969;SDS011;59838;52.152;5.436;2023-04-25T07:33:02;4.85;;;0.85;;
71969;SDS011;59838;52.152;5.436;2023-04-25T07:35:29;4.15;;;0.40;;
71969;SDS011;59838;52.152;5.436;2023-04-25T07:37:55;5.07;;;1.05;;
71969;SDS011;59838;52.152;5.436;2023-04-25T07:40:22;4.15;;;0.43;;
71969;SDS011;59838;52.152;5.436;2023-04-25T07:42:49;5.13;;;0.67;;
71969;SDS011;59838;52.152;5.436;2023-04-25T07:45:15;4.10;;;0.50;;
71969;SDS011;59838;52.152;5.436;2023-04-25T07:47:42;3.47;;;0.30;;
71969;SDS011;59838;52.152;5.436;2023-04-25T07:50:08;8.52;;;0.65;;
71969;SDS011;59838;52.152;5.436;2023-04-25T07:52:36;5.90;;;0.50;;
71969;SDS011;59838;52.152;5.436;2023-04-25T07:55:02;8.33;;;0.50;;
71969;SDS011;59838;52.152;5.436;2023-04-25T07:57:29;4.70;;;0.57;;
71969;SDS011;59838;52.152;5.436;2023-04-25T07:59:56;3.97;;;0.50;;
71969;SDS011;59838;52.152;5.436;2023-04-25T08:02:22;2.38;;;0.22;;
71969;SDS011;59838;52.152;5.436;2023-04-25T08:04:49;2.80;;;0.32;;
71969;SDS011;59838;52.152;5.436;2023-04-25T08:07:16;1.60;;;0.20;;
71969;SDS011;59838;52.152;5.436;2023-04-25T08:09:42;3.13;;;0.30;;
71969;SDS011;59838;52.152;5.436;2023-04-25T08:12:09;5.95;;;0.88;;
71969;SDS011;59838;52.152;5.436;2023-04-25T08:14:38;5.07;;;0.30;;
71969;SDS011;59838;52.152;5.436;2023-04-25T08:17:06;7.18;;;0.73;;
71969;SDS011;59838;52.152;5.436;2023-04-25T08:19:33;4.07;;;0.40;;
71969;SDS011;59838;52.152;5.436;2023-04-25T08:21:59;6.18;;;0.30;;
71969;SDS011;59838;52.152;5.436;2023-04-25T08:24:26;2.58;;;0.22;;
71969;SDS011;59838;52.152;5.436;2023-04-25T08:26:52;3.75;;;0.57;;
71969;SDS011;59838;52.152;5.436;2023-04-25T08:29:19;2.10;;;0.20;;
71969;SDS011;59838;52.152;5.436;2023-04-25T08:31:46;2.63;;;0.30;;
71969;SDS011;59838;52.152;5.436;2023-04-25T08:34:14;5.68;;;0.30;;
71969;SDS011;59838;52.152;5.436;2023-04-25T08:36:41;3.20;;;0.55;;
71969;SDS011;59838;52.152;5.436;2023-04-25T08:39:07;5.28;;;0.20;;
71969;SDS011;59838;52.152;5.436;2023-04-25T08:41:36;1.13;;;0.25;;
71969;SDS011;59838;52.152;5.436;2023-04-25T08:44:03;1.73;;;0.20;;
71969;SDS011;59838;52.152;5.436;2023-04-25T08:46:31;3.22;;;0.30;;
71969;SDS011;59838;52.152;5.436;2023-04-25T08:49:00;5.60;;;0.57;;
71969;SDS011;59838;52.152;5.436;2023-04-25T08:51:28;4.22;;;0.40;;
71969;SDS011;59838;52.152;5.436;2023-04-25T08:54:11;5.00;;;0.30;;
71969;SDS011;59838;52.152;5.436;2023-04-25T08:56:45;1.80;;;0.20;;
71969;SDS011;59838;52.152;5.436;2023-04-25T08:59:13;2.75;;;0.38;;
71969;SDS011;59838;52.152;5.436;2023-04-25T09:01:41;13.55;;;0.40;;
71969;SDS011;59838;52.152;5.436;2023-04-25T09:04:07;6.32;;;0.30;;
71969;SDS011;59838;52.152;5.436;2023-04-25T09:06:34;6.85;;;0.40;;
71969;SDS011;59838;52.152;5.436;2023-04-25T09:09:04;3.40;;;0.60;;
71969;SDS011;59838;52.152;5.436;2023-04-25T09:11:32;5.53;;;0.63;;
71969;SDS011;59838;52.152;5.436;2023-04-25T09:14:19;5.25;;;0.90;;
71969;SDS011;59838;52.152;5.436;2023-04-25T09:19:23;3.90;;;0.35;;
71969;SDS011;59838;52.152;5.436;2023-04-25T09:22:05;4.70;;;0.40;;
71969;SDS011;59838;52.152;5.436;2023-04-25T09:24:39;5.30;;;1.05;;
71969;SDS011;59838;52.152;5.436;2023-04-25T09:27:19;2.05;;;0.20;;
71969;SDS011;59838;52.152;5.436;2023-04-25T09:29:49;4.35;;;0.47;;
71969;SDS011;59838;52.152;5.436;2023-04-25T09:32:23;6.35;;;0.45;;
71969;SDS011;59838;52.152;5.436;2023-04-25T09:34:54;1.10;;;0.20;;
71969;SDS011;59838;52.152;5.436;2023-04-25T09:39:54;6.55;;;0.43;;
71969;SDS011;59838;52.152;5.436;2023-04-25T09:42:26;1.83;;;0.20;;
71969;SDS011;59838;52.152;5.436;2023-04-25T09:44:55;1.58;;;0.13;;
71969;SDS011;59838;52.152;5.436;2023-04-25T09:47:24;2.17;;;0.30;;
71969;SDS011;59838;52.152;5.436;2023-04-25T09:49:51;1.85;;;0.25;;
71969;SDS011;59838;52.152;5.436;2023-04-25T09:52:22;3.65;;;0.30;;
71969;SDS011;59838;52.152;5.436;2023-04-25T09:54:51;2.47;;;0.20;;
71969;SDS011;59838;52.152;5.436;2023-04-25T09:59:51;0.30;;;0.10;;
71969;SDS011;59838;52.152;5.436;2023-04-25T10:02:19;3.42;;;0.30;;
71969;SDS011;59838;52.152;5.436;2023-04-25T10:04:48;2.53;;;0.20;;
71969;SDS011;59838;52.152;5.436;2023-04-25T10:07:19;2.35;;;0.35;;
71969;SDS011;59838;52.152;5.436;2023-04-25T10:09:48;2.65;;;0.43;;
71969;SDS011;59838;52.152;5.436;2023-04-25T10:12:18;5.03;;;0.33;;
71969;SDS011;59838;52.152;5.436;2023-04-25T10:14:44;3.25;;;0.25;;
71969;SDS011;59838;52.152;5.436;2023-04-25T10:17:12;2.70;;;0.28;;
71969;SDS011;59838;52.152;5.436;2023-04-25T10:19:39;3.83;;;0.60;;
71969;SDS011;59838;52.152;5.436;2023-04-25T10:22:11;2.95;;;0.28;;
71969;SDS011;59838;52.152;5.436;2023-04-25T10:24:43;5.10;;;0.40;;
71969;SDS011;59838;52.152;5.436;2023-04-25T10:27:12;2.05;;;0.50;;
71969;SDS011;59838;52.152;5.436;2023-04-25T10:29:39;3.75;;;0.40;;
71969;SDS011;59838;52.152;5.436;2023-04-25T10:32:36;3.40;;;0.30;;
71969;SDS011;59838;52.152;5.436;2023-04-25T10:35:12;3.15;;;0.50;;
71969;SDS011;59838;52.152;5.436;2023-04-25T10:38:03;2.37;;;0.50;;
71969;SDS011;59838;52.152;5.436;2023-04-25T10:40:31;4.28;;;0.30;;
71969;SDS011;59838;52.152;5.436;2023-04-25T10:48:52;2.50;;;0.30;;
71969;SDS011;59838;52.152;5.436;2023-04-25T10:51:40;2.03;;;0.10;;
71969;SDS011;59838;52.152;5.436;2023-04-25T10:54:20;1.92;;;0.20;;
71969;SDS011;59838;52.152;5.436;2023-04-25T10:56:49;4.40;;;0.63;;
71969;SDS011;59838;52.152;5.436;2023-04-25T10:59:17;4.22;;;0.35;;
71969;SDS011;59838;52.152;5.436;2023-04-25T11:01:45;2.38;;;0.20;;
71969;SDS011;59838;52.152;5.436;2023-04-25T11:04:24;1.07;;;0.30;;
71969;SDS011;59838;52.152;5.436;2023-04-25T11:09:33;5.38;;;0.57;;
71969;SDS011;59838;52.152;5.436;2023-04-25T11:12:01;2.15;;;0.20;;
71969;SDS011;59838;52.152;5.436;2023-04-25T11:14:27;5.28;;;0.30;;
71969;SDS011;59838;52.152;5.436;2023-04-25T11:16:54;3.90;;;0.30;;
71969;SDS011;59838;52.152;5.436;2023-04-25T11:19:25;5.70;;;0.50;;
71969;SDS011;59838;52.152;5.436;2023-04-25T11:21:55;1.92;;;0.20;;
71969;SDS011;59838;52.152;5.436;2023-04-25T11:24:27;2.78;;;0.30;;
71969;SDS011;59838;52.152;5.436;2023-04-25T11:26:54;2.22;;;0.28;;
71969;SDS011;59838;52.152;5.436;2023-04-25T11:29:27;5.20;;;0.50;;
71969;SDS011;59838;52.152;5.436;2023-04-25T11:31:54;5.53;;;0.30;;
71969;SDS011;59838;52.152;5.436;2023-04-25T11:34:25;5.43;;;0.63;;
71969;SDS011;59838;52.152;5.436;2023-04-25T11:36:52;4.15;;;0.30;;
71969;SDS011;59838;52.152;5.436;2023-04-25T11:39:19;3.28;;;0.30;;
71969;SDS011;59838;52.152;5.436;2023-04-25T11:41:46;2.13;;;0.20;;
71969;SDS011;59838;52.152;5.436;2023-04-25T11:44:16;3.85;;;0.63;;
71969;SDS011;59838;52.152;5.436;2023-04-25T11:46:44;1.70;;;0.40;;
71969;SDS011;59838;52.152;5.436;2023-04-25T11:49:11;4.00;;;0.30;;
71969;SDS011;59838;52.152;5.436;2023-04-25T11:51:41;3.05;;;0.40;;
71969;SDS011;59838;52.152;5.436;2023-04-25T11:54:09;1.67;;;0.40;;
71969;SDS011;59838;52.152;5.436;2023-04-25T11:56:40;4.85;;;0.60;;
71969;SDS011;59838;52.152;5.436;2023-04-25T11:59:08;4.43;;;0.73;;
71969;SDS011;59838;52.152;5.436;2023-04-25T12:01:36;1.05;;;0.30;;
71969;SDS011;59838;52.152;5.436;2023-04-25T12:04:14;3.53;;;0.30;;
71969;SDS011;59838;52.152;5.436;2023-04-25T12:06:44;2.87;;;0.30;;
71969;SDS011;59838;52.152;5.436;2023-04-25T12:09:14;4.05;;;0.40;;
71969;SDS011;59838;52.152;5.436;2023-04-25T12:11:46;5.97;;;0.20;;
71969;SDS011;59838;52.152;5.436;2023-04-25T12:14:23;2.28;;;0.30;;
71969;SDS011;59838;52.152;5.436;2023-04-25T12:16:54;5.50;;;0.30;;
71969;SDS011;59838;52.152;5.436;2023-04-25T12:19:23;2.30;;;0.30;;
71969;SDS011;59838;52.152;5.436;2023-04-25T12:21:50;4.05;;;0.30;;
71969;SDS011;59838;52.152;5.436;2023-04-25T12:24:24;3.88;;;0.40;;
71969;SDS011;59838;52.152;5.436;2023-04-25T12:27:02;1.58;;;0.28;;
71969;SDS011;59838;52.152;5.436;2023-04-25T12:29:31;5.50;;;0.50;;
71969;SDS011;59838;52.152;5.436;2023-04-25T12:32:14;4.97;;;0.40;;
71969;SDS011;59838;52.152;5.436;2023-04-25T12:34:41;3.45;;;0.30;;
71969;SDS011;59838;52.152;5.436;2023-04-25T12:37:08;2.78;;;0.30;;
71969;SDS011;59838;52.152;5.436;2023-04-25T12:39:35;5.78;;;0.40;;
71969;SDS011;59838;52.152;5.436;2023-04-25T12:42:02;2.05;;;0.20;;
71969;SDS011;59838;52.152;5.436;2023-04-25T12:44:31;2.23;;;0.27;;
71969;SDS011;59838;52.152;5.436;2023-04-25T12:46:57;4.15;;;0.30;;
71969;SDS011;59838;52.152;5.436;2023-04-25T12:49:26;5.95;;;0.28;;
71969;SDS011;59838;52.152;5.436;2023-04-25T12:51:52;3.85;;;0.30;;
71969;SDS011;59838;52.152;5.436;2023-04-25T12:54:18;3.17;;;0.93;;
71969;SDS011;59838;52.152;5.436;2023-04-25T12:56:45;7.20;;;0.30;;
71969;SDS011;59838;52.152;5.436;2023-04-25T12:59:12;2.75;;;0.20;;
71969;SDS011;59838;52.152;5.436;2023-04-25T13:01:38;4.80;;;0.30;;
71969;SDS011;59838;52.152;5.436;2023-04-25T13:04:05;2.05;;;0.30;;
71969;SDS011;59838;52.152;5.436;2023-04-25T13:06:32;2.75;;;0.30;;
71969;SDS011;59838;52.152;5.436;2023-04-25T13:08:58;1.27;;;0.20;;
71969;SDS011;59838;52.152;5.436;2023-04-25T13:11:25;1.23;;;0.20;;
71969;SDS011;59838;52.152;5.436;2023-04-25T13:13:51;2.38;;;0.30;;
71969;SDS011;59838;52.152;5.436;2023-04-25T13:16:18;2.17;;;0.20;;
71969;SDS011;59838;52.152;5.436;2023-04-25T13:18:47;3.40;;;0.30;;
71969;SDS011;59838;52.152;5.436;2023-04-25T13:21:13;2.53;;;0.50;;
71969;SDS011;59838;52.152;5.436;2023-04-25T13:23:40;1.13;;;0.20;;
71969;SDS011;59838;52.152;5.436;2023-04-25T13:26:09;1.48;;;0.20;;
71969;SDS011;59838;52.152;5.436;2023-04-25T13:28:36;4.80;;;0.35;;
71969;SDS011;59838;52.152;5.436;2023-04-25T13:31:02;2.47;;;0.30;;
71969;SDS011;59838;52.152;5.436;2023-04-25T13:33:29;3.07;;;0.30;;
71969;SDS011;59838;52.152;5.436;2023-04-25T13:35:56;3.17;;;0.38;;
71969;SDS011;59838;52.152;5.436;2023-04-25T13:38:24;6.32;;;0.40;;
71969;SDS011;59838;52.152;5.436;2023-04-25T13:40:51;5.30;;;0.25;;
71969;SDS011;59838;52.152;5.436;2023-04-25T13:43:22;2.13;;;0.20;;
71969;SDS011;59838;52.152;5.436;2023-04-25T13:45:49;2.57;;;0.50;;
71969;SDS011;59838;52.152;5.436;2023-04-25T13:48:16;1.80;;;0.20;;
71969;SDS011;59838;52.152;5.436;2023-04-25T13:50:43;1.77;;;0.47;;
71969;SDS011;59838;52.152;5.436;2023-04-25T13:53:10;2.65;;;0.40;;
71969;SDS011;59838;52.152;5.436;2023-04-25T13:55:36;2.40;;;0.20;;
71969;SDS011;59838;52.152;5.436;2023-04-25T13:58:03;2.97;;;0.20;;
71969;SDS011;59838;52.152;5.436;2023-04-25T14:00:37;2.10;;;0.20;;
71969;SDS011;59838;52.152;5.436;2023-04-25T14:03:05;4.57;;;0.35;;
71969;SDS011;59838;52.152;5.436;2023-04-25T14:05:34;1.77;;;0.30;;
71969;SDS011;59838;52.152;5.436;2023-04-25T14:08:06;2.25;;;0.30;;
71969;SDS011;59838;52.152;5.436;2023-04-25T14:10:34;4.23;;;0.47;;
71969;SDS011;59838;52.152;5.436;2023-04-25T14:13:01;3.28;;;0.43;;
71969;SDS011;59838;52.152;5.436;2023-04-25T14:15:30;4.78;;;0.38;;
71969;SDS011;59838;52.152;5.436;2023-04-25T14:17:58;3.40;;;0.30;;
71969;SDS011;59838;52.152;5.436;2023-04-25T14:20:25;1.33;;;0.25;;
71969;SDS011;59838;52.152;5.436;2023-04-25T14:22:52;1.60;;;0.20;;
71969;SDS011;59838;52.152;5.436;2023-04-25T14:25:20;1.35;;;0.20;;
71969;SDS011;59838;52.152;5.436;2023-04-25T14:27:47;1.83;;;0.30;;
71969;SDS011;59838;52.152;5.436;2023-04-25T14:30:16;3.33;;;0.32;;
71969;SDS011;59838;52.152;5.436;2023-04-25T14:32:44;3.53;;;0.40;;
71969;SDS011;59838;52.152;5.436;2023-04-25T14:35:11;5.30;;;0.60;;
71969;SDS011;59838;52.152;5.436;2023-04-25T14:37:38;4.15;;;0.35;;
71969;SDS011;59838;52.152;5.436;2023-04-25T14:40:05;2.05;;;0.40;;
71969;SDS011;59838;52.152;5.436;2023-04-25T14:42:34;3.40;;;0.60;;
71969;SDS011;59838;52.152;5.436;2023-04-25T14:45:02;1.38;;;0.30;;
71969;SDS011;59838;52.152;5.436;2023-04-25T14:47:29;2.90;;;0.60;;
71969;SDS011;59838;52.152;5.436;2023-04-25T14:49:56;1.52;;;0.30;;
71969;SDS011;59838;52.152;5.436;2023-04-25T14:52:22;5.65;;;0.30;;
71969;SDS011;59838;52.152;5.436;2023-04-25T14:54:49;3.35;;;0.30;;
71969;SDS011;59838;52.152;5.436;2023-04-25T14:57:15;1.42;;;0.60;;
71969;SDS011;59838;52.152;5.436;2023-04-25T14:59:42;4.60;;;0.43;;
71969;SDS011;59838;52.152;5.436;2023-04-25T15:02:08;1.17;;;0.20;;
71969;SDS011;59838;52.152;5.436;2023-04-25T15:04:35;7.03;;;0.35;;
71969;SDS011;59838;52.152;5.436;2023-04-25T15:07:02;1.30;;;0.20;;